createdAt,value
2019-03-01T00:01:11.652Z,62.43
2019-03-01T00:03:39.797Z,63.63
2019-03-01T00:06:09.669Z,66.57
2019-03-01T00:08:57.708Z,68.40
2019-03-01T00:11:27.476Z,70.57
2019-03-01T00:14:00.198Z,71.20
2019-03-01T00:16:46.464Z,77.20
2019-03-01T00:19:16.245Z,77.17
2019-03-01T00:21:48.691Z,78.30
2019-03-01T00:24:21.433Z,76.63
2019-03-01T00:26:57.528Z,78.23
2019-03-01T00:29:27.413Z,76.63
2019-03-01T00:32:00.120Z,78.30
2019-03-01T00:34:38.883Z,78.83
2019-03-01T00:37:14.349Z,76.03
2019-03-01T00:40:00.588Z,72.03
2019-03-01T00:42:30.360Z,69.17
2019-03-01T00:44:58.608Z,74.60
2019-03-01T00:47:26.839Z,62.27
2019-03-01T00:49:55.052Z,50.23
2019-03-01T00:52:23.203Z,42.80
2019-03-01T00:54:51.387Z,35.70
2019-03-01T00:57:19.531Z,35.30
2019-03-01T00:59:47.677Z,33.83
2019-03-01T01:02:15.851Z,29.93
2019-03-01T01:04:44.373Z,30.57
2019-03-01T01:07:12.514Z,31.27
2019-03-01T01:09:40.697Z,29.83
2019-03-01T01:12:08.836Z,30.60
2019-03-01T01:14:37.140Z,28.47
2019-03-01T01:17:05.410Z,29.13
2019-03-01T01:19:33.861Z,26.47
2019-03-01T01:22:02.140Z,29.60
2019-03-01T01:24:30.332Z,29.87
2019-03-01T01:26:58.560Z,30.63
2019-03-01T01:29:27.036Z,29.83
2019-03-01T01:31:55.492Z,27.77
2019-03-01T01:34:23.642Z,32.17
2019-03-01T01:36:51.776Z,35.50
2019-03-01T01:39:20.253Z,38.10
2019-03-01T01:41:48.402Z,43.57
2019-03-01T01:44:16.545Z,43.93
2019-03-01T01:46:44.709Z,45.37
2019-03-01T01:49:12.852Z,46.80
2019-03-01T01:51:41.019Z,53.23
2019-03-01T01:54:09.258Z,54.20
2019-03-01T01:56:37.402Z,56.00
2019-03-01T01:59:05.540Z,58.10
2019-03-01T02:01:33.719Z,60.17
2019-03-01T02:04:01.858Z,60.97
2019-03-01T02:06:30.261Z,62.33
2019-03-01T02:08:58.440Z,58.97
2019-03-01T02:11:26.584Z,62.07
2019-03-01T02:13:54.736Z,61.60
2019-03-01T02:16:22.900Z,62.57
2019-03-01T02:18:57.509Z,65.50
2019-03-01T02:21:20.839Z,61.10
2019-03-01T02:23:49.016Z,63.40
2019-03-01T02:26:17.304Z,62.40
2019-03-01T02:28:45.718Z,63.67
2019-03-01T02:31:14.014Z,63.33
2019-03-01T02:33:42.168Z,59.90
2019-03-01T02:36:10.321Z,65.10
2019-03-01T02:38:38.504Z,63.73
2019-03-01T02:41:06.656Z,57.63
2019-03-01T02:43:34.780Z,59.27
2019-03-01T02:46:02.966Z,57.50
2019-03-01T02:48:31.580Z,60.03
2019-03-01T02:50:59.733Z,59.97
2019-03-01T02:53:28.166Z,58.37
2019-03-01T02:55:56.308Z,59.77
2019-03-01T02:58:24.445Z,57.37
2019-03-01T03:00:52.641Z,56.63
2019-03-01T03:03:20.778Z,54.60
2019-03-01T03:06:07.207Z,54.13
2019-03-01T03:08:35.424Z,51.17
2019-03-01T03:11:03.569Z,52.93
2019-03-01T03:13:31.745Z,50.97
2019-03-01T03:15:59.897Z,49.27
2019-03-01T03:18:29.311Z,51.03
2019-03-01T03:20:57.545Z,51.07
2019-03-01T03:23:25.895Z,48.73
2019-03-01T03:25:54.029Z,50.30
2019-03-01T03:28:22.200Z,50.97
2019-03-01T03:30:50.355Z,45.93
2019-03-01T03:33:18.528Z,48.93
2019-03-01T03:35:46.661Z,50.20
2019-03-01T03:38:14.808Z,50.60
2019-03-01T03:40:42.963Z,50.40
2019-03-01T03:43:11.121Z,48.80
2019-03-01T03:45:39.263Z,52.00
2019-03-01T03:48:07.582Z,53.13
2019-03-01T03:50:35.954Z,52.93
2019-03-01T03:53:04.094Z,56.07
2019-03-01T03:55:32.235Z,61.27
2019-03-01T03:58:00.410Z,66.67
2019-03-01T04:00:28.560Z,76.07
2019-03-01T04:02:57.924Z,79.60
2019-03-01T04:05:26.146Z,84.00
2019-03-01T04:07:54.612Z,86.03
2019-03-01T04:10:22.961Z,83.77
2019-03-01T04:12:51.217Z,88.57
2019-03-01T04:15:19.357Z,86.70
2019-03-01T04:17:47.495Z,83.77
2019-03-01T04:20:16.515Z,85.97
2019-03-01T04:22:44.668Z,87.80
2019-03-01T04:25:12.907Z,87.47
2019-03-01T04:27:41.084Z,88.67
2019-03-01T04:30:10.898Z,88.77
2019-03-01T04:32:39.036Z,89.33
2019-03-01T04:35:07.211Z,86.50
2019-03-01T04:37:35.352Z,88.50
2019-03-01T04:40:04.339Z,93.50
2019-03-01T04:42:32.584Z,94.73
2019-03-01T04:45:00.733Z,96.80
2019-03-01T04:47:28.877Z,98.83
2019-03-01T04:49:57.048Z,95.80
2019-03-01T04:52:28.993Z,96.67
2019-03-01T04:54:57.307Z,102.87
2019-03-01T04:57:25.555Z,100.73
2019-03-01T04:59:53.702Z,101.67
2019-03-01T05:02:21.860Z,102.10
2019-03-01T05:04:50.040Z,106.00
2019-03-01T05:07:18.185Z,113.20
2019-03-01T05:09:46.340Z,105.90
2019-03-01T05:12:14.711Z,113.53
2019-03-01T05:14:42.861Z,116.83
2019-03-01T05:17:11.012Z,112.43
2019-03-01T05:19:40.429Z,117.43
2019-03-01T05:22:08.586Z,122.70
2019-03-01T05:24:36.734Z,123.00
2019-03-01T05:27:04.914Z,122.47
2019-03-01T05:29:33.060Z,122.10
2019-03-01T05:32:01.205Z,125.57
2019-03-01T05:34:29.428Z,126.13
2019-03-01T05:36:57.572Z,123.03
2019-03-01T05:39:25.722Z,123.30
2019-03-01T05:41:53.888Z,123.63
2019-03-01T05:44:22.039Z,119.37
2019-03-01T05:46:50.196Z,121.47
2019-03-01T05:49:18.440Z,118.07
2019-03-01T05:51:46.795Z,117.50
2019-03-01T05:54:14.946Z,119.93
2019-03-01T05:56:43.130Z,115.70
2019-03-01T05:59:18.338Z,118.57
2019-03-01T06:01:51.062Z,117.40
2019-03-01T06:04:23.644Z,120.03
2019-03-01T06:06:53.457Z,116.67
2019-03-01T06:09:23.269Z,115.00
2019-03-01T06:11:59.037Z,114.07
2019-03-01T06:14:35.080Z,111.23
2019-03-01T06:17:10.711Z,111.13
2019-03-01T06:19:40.476Z,110.03
2019-03-01T06:22:16.248Z,112.80
2019-03-01T06:24:48.953Z,98.17
2019-03-01T06:27:19.657Z,72.30
2019-03-01T06:29:49.452Z,53.93
2019-03-01T06:32:19.271Z,49.33
2019-03-01T06:35:03.892Z,41.53
2019-03-01T06:37:51.659Z,37.63
2019-03-01T06:40:35.080Z,34.10
2019-03-01T06:43:04.866Z,33.03
2019-03-01T06:45:39.796Z,31.03
2019-03-01T06:48:10.088Z,29.77
2019-03-01T06:50:39.873Z,28.10
2019-03-01T06:53:08.749Z,25.93
2019-03-01T06:55:41.075Z,22.00
2019-03-01T06:58:12.449Z,24.17
2019-03-01T07:00:49.873Z,20.83
2019-03-01T07:03:12.025Z,22.30
2019-03-01T07:05:40.201Z,23.17
2019-03-01T07:08:09.473Z,23.43
2019-03-01T07:10:45.482Z,24.10
2019-03-01T07:13:16.539Z,28.10
2019-03-01T07:15:45.553Z,26.73
2019-03-01T07:18:14.548Z,31.67
2019-03-01T07:20:46.056Z,30.43
2019-03-01T07:23:14.029Z,30.00
2019-03-01T07:25:42.543Z,28.43
2019-03-01T07:28:11.056Z,27.00
2019-03-01T07:30:39.497Z,25.97
2019-03-01T07:33:07.690Z,26.50
2019-03-01T07:35:35.857Z,25.57
2019-03-01T07:38:04.024Z,24.10
2019-03-01T07:40:32.202Z,24.03
2019-03-01T07:43:00.342Z,21.33
2019-03-01T07:45:28.492Z,18.20
2019-03-01T07:47:56.647Z,16.33
2019-03-01T07:50:24.796Z,15.70
2019-03-01T07:52:52.984Z,15.13
2019-03-01T07:55:21.164Z,13.57
2019-03-01T07:57:49.707Z,13.30
2019-03-01T08:00:18.801Z,12.60
2019-03-01T08:02:46.995Z,12.47
2019-03-01T08:05:16.337Z,13.40
2019-03-01T08:07:55.427Z,11.43
2019-03-01T08:10:20.529Z,10.17
2019-03-01T08:12:47.510Z,7.30
2019-03-01T08:15:16.757Z,7.20
2019-03-01T08:17:44.965Z,6.00
2019-03-01T08:20:14.880Z,5.67
2019-03-01T08:22:48.772Z,5.33
2019-03-01T08:25:13.008Z,4.33
2019-03-01T08:27:41.978Z,3.77
2019-03-01T08:30:12.556Z,5.10
2019-03-01T08:32:40.721Z,4.03
2019-03-01T08:35:10.133Z,4.27
2019-03-01T08:37:38.556Z,4.53
2019-03-01T08:40:11.414Z,4.43
2019-03-01T08:42:38.182Z,4.67
2019-03-01T08:45:08.051Z,4.50
2019-03-01T08:47:36.352Z,4.37
2019-03-01T08:50:06.093Z,4.57
2019-03-01T08:52:37.275Z,4.83
2019-03-01T08:55:06.154Z,5.77
2019-03-01T08:57:43.817Z,5.37
2019-03-01T09:00:05.710Z,5.63
2019-03-01T09:02:33.973Z,6.30
2019-03-01T09:05:05.302Z,6.53
2019-03-01T09:07:31.869Z,6.17
2019-03-01T09:10:00.482Z,5.17
2019-03-01T09:12:28.609Z,5.83
2019-03-01T09:14:57.101Z,7.00
2019-03-01T09:17:25.628Z,6.43
2019-03-01T09:19:53.792Z,6.70
2019-03-01T09:22:24.168Z,5.73
2019-03-01T09:24:51.962Z,6.40
2019-03-01T09:27:20.084Z,5.50
2019-03-01T09:29:48.232Z,5.90
2019-03-01T09:32:16.424Z,4.90
2019-03-01T09:34:46.209Z,4.83
2019-03-01T09:37:14.625Z,5.63
2019-03-01T09:39:42.864Z,4.60
2019-03-01T09:42:12.356Z,4.33
2019-03-01T09:44:40.792Z,4.63
2019-03-01T09:47:08.969Z,3.43
2019-03-01T09:49:37.104Z,3.43
2019-03-01T09:52:05.241Z,2.40
2019-03-01T09:54:33.404Z,2.90
2019-03-01T09:57:01.805Z,2.40
2019-03-01T09:59:29.948Z,2.27
2019-03-01T10:01:58.288Z,2.10
2019-03-01T10:04:26.424Z,1.87
2019-03-01T10:06:54.565Z,2.40
2019-03-01T10:09:22.804Z,2.67
2019-03-01T10:11:50.947Z,2.10
2019-03-01T10:14:20.377Z,2.20
2019-03-01T10:16:50.542Z,1.57
2019-03-01T10:19:18.678Z,1.60
2019-03-01T10:21:46.864Z,1.80
2019-03-01T10:24:15.374Z,1.40
2019-03-01T10:26:43.684Z,1.10
2019-03-01T10:29:11.826Z,1.60
2019-03-01T10:31:40.389Z,1.40
2019-03-01T10:34:08.517Z,1.03
2019-03-01T10:36:36.655Z,0.97
2019-03-01T10:39:06.629Z,1.17
2019-03-01T10:41:34.771Z,0.97
2019-03-01T10:44:02.915Z,1.10
2019-03-01T10:46:31.068Z,1.00
2019-03-01T10:48:59.202Z,1.00
2019-03-01T10:51:27.336Z,0.80
2019-03-01T10:53:56.151Z,0.50
2019-03-01T10:56:24.296Z,1.17
2019-03-01T10:58:52.516Z,0.70
2019-03-01T11:01:20.692Z,0.80
2019-03-01T11:03:48.820Z,0.53
2019-03-01T11:06:16.956Z,0.60
2019-03-01T11:08:45.118Z,1.00
2019-03-01T11:11:13.266Z,0.60
2019-03-01T11:13:41.405Z,1.10
2019-03-01T11:16:09.873Z,0.70
2019-03-01T11:18:38.024Z,0.40
2019-03-01T11:21:06.170Z,0.97
2019-03-01T11:23:34.339Z,1.10
2019-03-01T11:26:02.768Z,0.50
2019-03-01T11:28:30.904Z,0.80
2019-03-01T11:30:59.095Z,0.70
2019-03-01T11:33:27.232Z,0.73
2019-03-01T11:35:55.504Z,0.67
2019-03-01T11:38:26.472Z,0.63
2019-03-01T11:40:55.888Z,0.57
2019-03-01T11:43:24.253Z,0.50
2019-03-01T11:45:52.424Z,0.70
2019-03-01T11:48:20.568Z,0.63
2019-03-01T11:50:48.831Z,0.53
2019-03-01T11:53:17.004Z,0.83
2019-03-01T11:55:45.134Z,0.87
2019-03-01T11:58:13.270Z,0.50
2019-03-01T12:00:41.436Z,0.70
2019-03-01T12:03:09.573Z,0.33
2019-03-01T12:05:37.721Z,0.90
2019-03-01T12:08:05.878Z,0.50
2019-03-01T12:10:34.188Z,0.50
2019-03-01T12:13:02.330Z,1.10
2019-03-01T12:15:30.517Z,0.43
2019-03-01T12:17:58.653Z,0.60
2019-03-01T12:20:30.533Z,0.77
2019-03-01T12:22:58.709Z,0.57
2019-03-01T12:25:27.051Z,0.60
2019-03-01T12:27:55.214Z,0.60
2019-03-01T12:30:24.081Z,0.67
2019-03-01T12:32:52.181Z,0.70
2019-03-01T12:35:20.326Z,0.80
2019-03-01T12:37:48.497Z,0.60
2019-03-01T12:40:26.065Z,0.50
2019-03-01T12:42:55.495Z,0.53
2019-03-01T12:45:23.637Z,0.97
2019-03-01T12:47:51.773Z,0.90
2019-03-01T12:50:19.943Z,0.63
2019-03-01T12:52:49.349Z,0.60
2019-03-01T12:55:24.093Z,0.40
2019-03-01T12:57:52.221Z,0.57
2019-03-01T13:00:33.079Z,0.50
2019-03-01T13:03:01.268Z,0.50
2019-03-01T13:05:30.281Z,0.60
2019-03-01T13:07:58.616Z,0.40
2019-03-01T13:10:28.380Z,0.50
2019-03-01T13:13:01.992Z,0.40
2019-03-01T13:15:32.415Z,0.30
2019-03-01T13:18:03.561Z,0.90
2019-03-01T13:20:33.724Z,0.40
2019-03-01T13:23:04.757Z,0.50
2019-03-01T13:25:34.118Z,0.70
2019-03-01T13:28:02.253Z,0.50
2019-03-01T13:30:32.643Z,0.70
2019-03-01T13:33:03.429Z,0.50
2019-03-01T13:35:31.677Z,0.67
2019-03-01T13:38:00.241Z,0.50
2019-03-01T13:40:31.867Z,0.60
2019-03-01T13:43:02.346Z,0.60
2019-03-01T13:45:33.030Z,0.53
2019-03-01T13:48:03.137Z,0.53
2019-03-01T13:50:30.960Z,0.40
2019-03-01T13:53:02.035Z,0.67
2019-03-01T13:55:32.176Z,0.43
2019-03-01T13:58:01.076Z,0.50
2019-03-01T14:00:30.901Z,0.63
2019-03-01T14:03:00.745Z,0.60
2019-03-01T14:05:31.916Z,0.60
2019-03-01T14:08:08.729Z,0.50
2019-03-01T14:10:32.917Z,0.40
2019-03-01T14:13:02.438Z,0.53
2019-03-01T14:15:30.591Z,0.30
2019-03-01T14:18:01.205Z,0.47
2019-03-01T14:20:28.957Z,0.37
2019-03-01T14:23:04.736Z,0.50
2019-03-01T14:25:33.715Z,0.40
2019-03-01T14:28:04.831Z,0.37
2019-03-01T14:30:33.423Z,0.40
2019-03-01T14:33:01.556Z,0.40
2019-03-01T14:35:29.728Z,0.40
2019-03-01T14:37:58.042Z,0.77
2019-03-01T14:40:26.181Z,0.40
2019-03-01T14:42:54.468Z,0.50
2019-03-01T14:45:25.443Z,0.50
2019-03-01T14:47:53.846Z,0.40
2019-03-01T14:50:25.112Z,0.40
2019-03-01T14:52:58.402Z,0.33
2019-03-01T14:55:38.330Z,0.40
2019-03-01T14:58:11.089Z,0.37
2019-03-01T15:00:40.881Z,0.33
2019-03-01T15:03:15.922Z,0.30
2019-03-01T15:05:43.489Z,0.50
2019-03-01T15:08:13.799Z,1.20
2019-03-01T15:10:42.291Z,0.50
2019-03-01T15:13:10.429Z,0.60
2019-03-01T15:15:39.376Z,0.67
2019-03-01T15:18:11.153Z,0.50
2019-03-01T15:20:39.357Z,0.73
2019-03-01T15:23:07.526Z,0.70
2019-03-01T15:25:35.669Z,0.73
2019-03-01T15:28:03.811Z,0.80
2019-03-01T15:30:31.983Z,0.80
2019-03-01T15:33:00.146Z,0.60
2019-03-01T15:35:28.841Z,0.90
2019-03-01T15:37:57.292Z,0.80
2019-03-01T15:40:27.852Z,0.80
2019-03-01T15:42:55.580Z,1.50
2019-03-01T15:45:23.693Z,1.03
2019-03-01T15:47:51.872Z,1.00
2019-03-01T15:50:20.004Z,0.60
2019-03-01T15:52:50.787Z,0.73
2019-03-01T15:55:19.580Z,0.60
2019-03-01T15:57:47.712Z,0.30
2019-03-01T16:00:16.864Z,0.53
2019-03-01T16:02:45.020Z,0.57
2019-03-01T16:05:13.929Z,0.67
2019-03-01T16:07:42.096Z,0.30
2019-03-01T16:10:11.332Z,0.40
2019-03-01T16:12:39.537Z,0.40
2019-03-01T16:15:09.271Z,0.47
2019-03-01T16:17:37.419Z,0.40
2019-03-01T16:20:12.617Z,0.50
2019-03-01T16:22:40.780Z,0.40
2019-03-01T16:25:10.484Z,0.40
2019-03-01T16:27:38.612Z,0.37
2019-03-01T16:30:10.940Z,0.50
2019-03-01T16:32:40.834Z,0.70
2019-03-01T16:35:10.383Z,0.53
2019-03-01T16:37:39.209Z,0.70
2019-03-01T16:40:08.988Z,0.70
2019-03-01T16:42:38.663Z,0.40
2019-03-01T16:45:08.213Z,0.80
2019-03-01T16:47:38.281Z,0.60
2019-03-01T16:50:10.012Z,0.60
2019-03-01T16:52:38.392Z,0.70
2019-03-01T16:55:11.318Z,0.47
2019-03-01T16:57:39.755Z,0.70
2019-03-01T17:00:09.544Z,1.07
2019-03-01T17:02:42.009Z,0.70
2019-03-01T17:05:08.775Z,0.77
2019-03-01T17:07:37.314Z,0.87
2019-03-01T17:10:07.070Z,1.53
2019-03-01T17:12:35.208Z,0.90
2019-03-01T17:15:04.307Z,0.70
2019-03-01T17:17:33.161Z,0.70
2019-03-01T17:20:03.676Z,0.80
2019-03-01T17:22:33.441Z,0.53
2019-03-01T17:25:01.580Z,0.80
2019-03-01T17:27:30.170Z,0.50
2019-03-01T17:29:58.312Z,0.80
2019-03-01T17:32:26.757Z,0.90
2019-03-01T17:34:54.888Z,0.70
2019-03-01T17:37:25.856Z,0.90
2019-03-01T17:39:53.156Z,0.80
2019-03-01T17:42:22.751Z,0.77
2019-03-01T17:44:50.909Z,1.13
2019-03-01T17:47:19.325Z,0.70
2019-03-01T17:49:47.500Z,0.80
2019-03-01T17:52:15.653Z,0.80
2019-03-01T17:54:43.805Z,0.70
2019-03-01T17:57:15.053Z,1.00
2019-03-01T17:59:44.601Z,0.60
2019-03-01T18:02:15.050Z,0.60
2019-03-01T18:04:42.789Z,0.83
2019-03-01T18:07:10.970Z,0.80
2019-03-01T18:09:40.300Z,0.90
2019-03-01T18:12:08.439Z,0.80
2019-03-01T18:14:36.926Z,0.57
2019-03-01T18:17:05.951Z,0.80
2019-03-01T18:19:34.094Z,0.60
2019-03-01T18:22:02.270Z,1.00
2019-03-01T18:24:30.408Z,0.83
2019-03-01T18:26:58.572Z,0.70
2019-03-01T18:29:27.110Z,0.90
2019-03-01T18:31:55.265Z,1.00
2019-03-01T18:34:23.442Z,0.80
2019-03-01T18:36:51.609Z,0.73
2019-03-01T18:39:19.788Z,0.90
2019-03-01T18:41:48.825Z,0.77
2019-03-01T18:44:16.992Z,0.80
2019-03-01T18:46:46.769Z,0.63
2019-03-01T18:49:16.750Z,0.70
2019-03-01T18:51:44.716Z,0.80
2019-03-01T18:54:12.859Z,0.80
2019-03-01T18:56:42.268Z,0.60
2019-03-01T18:59:10.441Z,0.60
2019-03-01T19:01:38.650Z,0.70
2019-03-01T19:04:07.980Z,0.80
2019-03-01T19:06:36.164Z,1.03
2019-03-01T19:09:04.983Z,1.33
2019-03-01T19:11:34.697Z,0.97
2019-03-01T19:14:04.721Z,0.90
2019-03-01T19:16:33.488Z,1.10
2019-03-01T19:19:01.613Z,0.90
2019-03-01T19:21:29.795Z,0.90
2019-03-01T19:24:01.335Z,0.83
2019-03-01T19:26:29.844Z,0.80
2019-03-01T19:29:02.697Z,0.77
2019-03-01T19:31:42.065Z,0.80
2019-03-01T19:34:16.896Z,0.80
2019-03-01T19:36:45.821Z,1.10
2019-03-01T19:39:16.967Z,0.97
2019-03-01T19:41:45.184Z,0.87
2019-03-01T19:44:15.062Z,1.07
2019-03-01T19:46:43.922Z,1.00
2019-03-01T19:49:12.845Z,0.93
2019-03-01T19:51:42.019Z,0.63
2019-03-01T19:54:10.284Z,0.90
2019-03-01T19:56:38.666Z,0.93
2019-03-01T19:59:06.810Z,0.73
2019-03-01T20:01:34.984Z,0.70
2019-03-01T20:04:03.246Z,0.87
2019-03-01T20:06:31.592Z,1.10
2019-03-01T20:09:01.638Z,1.13
2019-03-01T20:11:29.573Z,0.93
2019-03-01T20:13:57.808Z,1.77
2019-03-01T20:16:25.987Z,0.90
2019-03-01T20:18:54.245Z,0.90
2019-03-01T20:21:23.068Z,0.80
2019-03-01T20:23:51.331Z,0.90
2019-03-01T20:26:19.470Z,1.07
2019-03-01T20:28:50.223Z,0.87
2019-03-01T20:31:17.462Z,1.00
2019-03-01T20:33:45.597Z,1.10
2019-03-01T20:36:17.468Z,1.10
2019-03-01T20:38:43.637Z,1.00
2019-03-01T20:41:11.765Z,1.17
2019-03-01T20:43:41.720Z,1.40
2019-03-01T20:46:09.801Z,1.57
2019-03-01T20:48:37.936Z,1.47
2019-03-01T20:51:06.307Z,1.30
2019-03-01T20:53:34.908Z,1.30
2019-03-01T20:56:03.121Z,1.20
2019-03-01T20:58:31.497Z,1.47
2019-03-01T21:01:01.950Z,1.30
2019-03-01T21:03:29.945Z,1.47
2019-03-01T21:06:01.617Z,1.70
2019-03-01T21:08:29.800Z,1.17
2019-03-01T21:10:58.333Z,1.47
2019-03-01T21:13:26.468Z,1.20
2019-03-01T21:15:54.628Z,1.30
2019-03-01T21:18:22.777Z,1.47
2019-03-01T21:20:53.780Z,1.50
2019-03-01T21:23:21.398Z,1.10
2019-03-01T21:25:49.543Z,1.30
2019-03-01T21:28:17.683Z,1.20
2019-03-01T21:30:45.861Z,1.30
2019-03-01T21:33:14.071Z,1.17
2019-03-01T21:35:42.201Z,1.80
2019-03-01T21:38:13.930Z,0.90
2019-03-01T21:40:40.720Z,1.30
2019-03-01T21:43:08.856Z,1.67
2019-03-01T21:45:37.065Z,1.10
2019-03-01T21:48:05.192Z,1.17
2019-03-01T21:50:33.450Z,1.23
2019-03-01T21:53:05.396Z,1.67
2019-03-01T21:55:32.848Z,1.30
2019-03-01T21:58:03.409Z,1.40
2019-03-01T22:00:31.604Z,0.97
2019-03-01T22:02:59.753Z,1.27
2019-03-01T22:05:28.022Z,1.50
2019-03-01T22:07:56.187Z,1.40
2019-03-01T22:10:24.330Z,1.57
2019-03-01T22:12:52.461Z,1.87
2019-03-01T22:15:25.583Z,1.43
2019-03-01T22:17:52.096Z,1.70
2019-03-01T22:20:20.767Z,1.60
2019-03-01T22:22:48.934Z,1.60
2019-03-01T22:25:17.188Z,2.20
2019-03-01T22:27:45.333Z,2.10
2019-03-01T22:30:14.671Z,2.33
2019-03-01T22:32:45.500Z,2.13
2019-03-01T22:35:14.566Z,2.20
2019-03-01T22:37:42.740Z,1.97
2019-03-01T22:40:11.241Z,1.90
2019-03-01T22:42:39.381Z,2.27
2019-03-01T22:45:10.391Z,2.20
2019-03-01T22:47:38.959Z,2.30
2019-03-01T22:50:11.173Z,2.40
2019-03-01T22:52:39.336Z,2.40
2019-03-01T22:55:08.680Z,3.30
2019-03-01T22:57:36.816Z,2.80
2019-03-01T23:00:06.601Z,2.77
2019-03-01T23:02:34.744Z,2.40
2019-03-01T23:05:03.863Z,3.20
2019-03-01T23:07:33.017Z,3.10
2019-03-01T23:10:01.153Z,3.23
2019-03-01T23:12:29.292Z,3.53
2019-03-01T23:14:57.610Z,3.50
2019-03-01T23:17:27.618Z,3.00
2019-03-01T23:19:55.936Z,3.20
2019-03-01T23:22:24.107Z,3.30
2019-03-01T23:24:52.446Z,3.60
2019-03-01T23:27:20.572Z,3.43
2019-03-01T23:29:51.029Z,3.57
2019-03-01T23:32:18.846Z,3.70
2019-03-01T23:34:47.057Z,3.70
2019-03-01T23:37:15.228Z,3.80
2019-03-01T23:39:43.365Z,3.53
2019-03-01T23:42:11.505Z,3.67
2019-03-01T23:44:41.496Z,3.50
2019-03-01T23:47:09.442Z,3.67
2019-03-01T23:49:37.584Z,3.80
2019-03-01T23:52:05.750Z,3.63
2019-03-01T23:54:33.887Z,4.07
2019-03-01T23:57:05.548Z,4.70
2019-03-01T23:59:31.845Z,3.90
